sensor_id;sensor_type;location;lat;lon;timestamp;P1;durP1;ratioP1;P2;durP2;ratioP2
55672;SDS011;41554;45.366;20.400;2023-07-20T00:02:00;7.15;;;4.03;;
55672;SDS011;41554;45.366;20.400;2023-07-20T00:04:27;7.93;;;3.42;;
55672;SDS011;41554;45.366;20.400;2023-07-20T00:06:53;8.68;;;3.95;;
55672;SDS011;41554;45.366;20.400;2023-07-20T00:09:19;7.70;;;3.70;;
55672;SDS011;41554;45.366;20.400;2023-07-20T00:11:49;8.20;;;3.50;;
55672;SDS011;41554;45.366;20.400;2023-07-20T00:14:16;15.40;;;4.55;;
55672;SDS011;41554;45.366;20.400;2023-07-20T00:16:42;4.50;;;3.58;;
55672;SDS011;41554;45.366;20.400;2023-07-20T00:19:08;9.23;;;3.72;;
55672;SDS011;41554;45.366;20.400;2023-07-20T00:21:35;9.27;;;4.60;;
55672;SDS011;41554;45.366;20.400;2023-07-20T00:24:01;8.15;;;3.67;;
55672;SDS011;41554;45.366;20.400;2023-07-20T00:26:27;6.63;;;4.38;;
55672;SDS011;41554;45.366;20.400;2023-07-20T00:28:53;6.00;;;4.30;;
55672;SDS011;41554;45.366;20.400;2023-07-20T00:31:19;8.25;;;3.70;;
55672;SDS011;41554;45.366;20.400;2023-07-20T00:33:45;4.93;;;3.85;;
55672;SDS011;41554;45.366;20.400;2023-07-20T00:36:12;7.05;;;3.83;;
55672;SDS011;41554;45.366;20.400;2023-07-20T00:38:38;4.45;;;3.60;;
55672;SDS011;41554;45.366;20.400;2023-07-20T00:41:04;18.40;;;5.38;;
55672;SDS011;41554;45.366;20.400;2023-07-20T00:43:30;11.90;;;7.28;;
55672;SDS011;41554;45.366;20.400;2023-07-20T00:45:56;22.98;;;13.40;;
55672;SDS011;41554;45.366;20.400;2023-07-20T00:48:22;12.95;;;8.25;;
55672;SDS011;41554;45.366;20.400;2023-07-20T00:50:49;10.05;;;5.53;;
55672;SDS011;41554;45.366;20.400;2023-07-20T00:53:15;5.80;;;4.93;;
55672;SDS011;41554;45.366;20.400;2023-07-20T00:55:41;12.38;;;5.88;;
55672;SDS011;41554;45.366;20.400;2023-07-20T00:58:07;7.85;;;4.90;;
55672;SDS011;41554;45.366;20.400;2023-07-20T01:00:34;12.00;;;5.38;;
55672;SDS011;41554;45.366;20.400;2023-07-20T01:03:00;9.02;;;3.33;;
55672;SDS011;41554;45.366;20.400;2023-07-20T01:05:30;11.70;;;6.53;;
55672;SDS011;41554;45.366;20.400;2023-07-20T01:07:58;7.68;;;3.65;;
55672;SDS011;41554;45.366;20.400;2023-07-20T01:10:28;7.57;;;5.03;;
55672;SDS011;41554;45.366;20.400;2023-07-20T01:12:55;10.13;;;5.85;;
55672;SDS011;41554;45.366;20.400;2023-07-20T01:15:21;14.63;;;6.63;;
55672;SDS011;41554;45.366;20.400;2023-07-20T01:17:47;8.65;;;4.43;;
55672;SDS011;41554;45.366;20.400;2023-07-20T01:20:14;10.93;;;5.43;;
55672;SDS011;41554;45.366;20.400;2023-07-20T01:33:07;13.10;;;4.40;;
55672;SDS011;41554;45.366;20.400;2023-07-20T01:35:34;12.45;;;3.88;;
55672;SDS011;41554;45.366;20.400;2023-07-20T01:38:00;6.72;;;4.68;;
55672;SDS011;41554;45.366;20.400;2023-07-20T01:40:26;7.18;;;4.45;;
55672;SDS011;41554;45.366;20.400;2023-07-20T01:42:53;10.45;;;5.38;;
55672;SDS011;41554;45.366;20.400;2023-07-20T01:45:19;4.75;;;3.00;;
55672;SDS011;41554;45.366;20.400;2023-07-20T01:47:45;7.32;;;4.35;;
55672;SDS011;41554;45.366;20.400;2023-07-20T01:50:11;8.52;;;5.78;;
55672;SDS011;41554;45.366;20.400;2023-07-20T01:52:37;7.25;;;4.90;;
55672;SDS011;41554;45.366;20.400;2023-07-20T01:55:03;8.77;;;5.10;;
55672;SDS011;41554;45.366;20.400;2023-07-20T01:57:29;9.50;;;4.45;;
55672;SDS011;41554;45.366;20.400;2023-07-20T01:59:56;14.25;;;5.80;;
55672;SDS011;41554;45.366;20.400;2023-07-20T02:02:23;7.68;;;4.85;;
55672;SDS011;41554;45.366;20.400;2023-07-20T02:04:50;10.73;;;4.95;;
55672;SDS011;41554;45.366;20.400;2023-07-20T02:07:16;7.18;;;4.22;;
55672;SDS011;41554;45.366;20.400;2023-07-20T02:09:42;6.40;;;4.15;;
55672;SDS011;41554;45.366;20.400;2023-07-20T02:12:08;7.38;;;4.65;;
55672;SDS011;41554;45.366;20.400;2023-07-20T02:14:34;6.88;;;4.78;;
55672;SDS011;41554;45.366;20.400;2023-07-20T02:17:00;7.53;;;4.70;;
55672;SDS011;41554;45.366;20.400;2023-07-20T02:19:26;7.20;;;3.88;;
55672;SDS011;41554;45.366;20.400;2023-07-20T02:21:53;11.25;;;5.47;;
55672;SDS011;41554;45.366;20.400;2023-07-20T02:24:19;10.30;;;6.38;;
55672;SDS011;41554;45.366;20.400;2023-07-20T02:26:45;6.95;;;4.72;;
55672;SDS011;41554;45.366;20.400;2023-07-20T02:29:11;11.68;;;5.68;;
55672;SDS011;41554;45.366;20.400;2023-07-20T02:31:37;7.75;;;5.43;;
55672;SDS011;41554;45.366;20.400;2023-07-20T02:34:07;14.25;;;6.07;;
55672;SDS011;41554;45.366;20.400;2023-07-20T02:36:34;8.43;;;5.30;;
55672;SDS011;41554;45.366;20.400;2023-07-20T02:39:00;7.57;;;5.25;;
55672;SDS011;41554;45.366;20.400;2023-07-20T02:41:29;10.50;;;4.38;;
55672;SDS011;41554;45.366;20.400;2023-07-20T02:43:55;11.60;;;4.75;;
55672;SDS011;41554;45.366;20.400;2023-07-20T02:46:22;6.05;;;4.25;;
55672;SDS011;41554;45.366;20.400;2023-07-20T02:48:48;5.47;;;3.85;;
55672;SDS011;41554;45.366;20.400;2023-07-20T02:51:14;23.30;;;15.75;;
55672;SDS011;41554;45.366;20.400;2023-07-20T02:53:40;30.55;;;18.20;;
55672;SDS011;41554;45.366;20.400;2023-07-20T02:56:06;17.33;;;11.50;;
55672;SDS011;41554;45.366;20.400;2023-07-20T02:58:33;9.60;;;6.85;;
55672;SDS011;41554;45.366;20.400;2023-07-20T03:01:03;13.43;;;6.75;;
55672;SDS011;41554;45.366;20.400;2023-07-20T03:03:29;14.98;;;7.93;;
55672;SDS011;41554;45.366;20.400;2023-07-20T03:05:55;7.68;;;5.72;;
55672;SDS011;41554;45.366;20.400;2023-07-20T03:08:22;11.13;;;6.18;;
55672;SDS011;41554;45.366;20.400;2023-07-20T03:10:49;10.85;;;5.10;;
55672;SDS011;41554;45.366;20.400;2023-07-20T03:13:15;8.95;;;3.65;;
55672;SDS011;41554;45.366;20.400;2023-07-20T03:15:41;8.80;;;5.20;;
55672;SDS011;41554;45.366;20.400;2023-07-20T03:18:07;5.95;;;3.78;;
55672;SDS011;41554;45.366;20.400;2023-07-20T03:20:34;5.22;;;3.95;;
55672;SDS011;41554;45.366;20.400;2023-07-20T03:23:01;5.65;;;4.15;;
55672;SDS011;41554;45.366;20.400;2023-07-20T03:25:27;10.80;;;5.20;;
55672;SDS011;41554;45.366;20.400;2023-07-20T03:27:53;7.40;;;3.20;;
55672;SDS011;41554;45.366;20.400;2023-07-20T03:30:20;7.95;;;4.50;;
55672;SDS011;41554;45.366;20.400;2023-07-20T03:32:46;6.30;;;4.43;;
55672;SDS011;41554;45.366;20.400;2023-07-20T03:35:12;9.98;;;3.60;;
55672;SDS011;41554;45.366;20.400;2023-07-20T03:37:38;6.20;;;3.00;;
55672;SDS011;41554;45.366;20.400;2023-07-20T03:40:04;11.95;;;5.20;;
55672;SDS011;41554;45.366;20.400;2023-07-20T03:42:32;6.82;;;4.05;;
55672;SDS011;41554;45.366;20.400;2023-07-20T03:44:58;7.53;;;3.88;;
55672;SDS011;41554;45.366;20.400;2023-07-20T03:47:24;11.95;;;4.80;;
55672;SDS011;41554;45.366;20.400;2023-07-20T03:49:50;5.88;;;3.63;;
55672;SDS011;41554;45.366;20.400;2023-07-20T03:52:16;5.50;;;3.25;;
55672;SDS011;41554;45.366;20.400;2023-07-20T03:54:42;5.20;;;3.05;;
55672;SDS011;41554;45.366;20.400;2023-07-20T03:57:09;12.82;;;5.18;;
55672;SDS011;41554;45.366;20.400;2023-07-20T03:59:36;12.80;;;5.22;;
55672;SDS011;41554;45.366;20.400;2023-07-20T04:02:03;9.90;;;4.45;;
55672;SDS011;41554;45.366;20.400;2023-07-20T04:04:30;8.98;;;5.75;;
55672;SDS011;41554;45.366;20.400;2023-07-20T04:06:56;14.57;;;6.70;;
55672;SDS011;41554;45.366;20.400;2023-07-20T04:09:22;8.57;;;5.30;;
55672;SDS011;41554;45.366;20.400;2023-07-20T04:11:48;12.85;;;7.22;;
55672;SDS011;41554;45.366;20.400;2023-07-20T04:14:14;6.25;;;4.55;;
55672;SDS011;41554;45.366;20.400;2023-07-20T04:16:40;7.45;;;4.93;;
55672;SDS011;41554;45.366;20.400;2023-07-20T04:19:07;7.15;;;4.65;;
55672;SDS011;41554;45.366;20.400;2023-07-20T04:21:39;26.58;;;8.25;;
55672;SDS011;41554;45.366;20.400;2023-07-20T04:24:06;13.85;;;9.93;;
55672;SDS011;41554;45.366;20.400;2023-07-20T04:26:32;6.82;;;5.63;;
55672;SDS011;41554;45.366;20.400;2023-07-20T04:28:58;8.10;;;5.95;;
55672;SDS011;41554;45.366;20.400;2023-07-20T04:31:24;9.18;;;5.70;;
55672;SDS011;41554;45.366;20.400;2023-07-20T04:33:50;8.18;;;6.45;;
55672;SDS011;41554;45.366;20.400;2023-07-20T04:36:16;8.18;;;5.03;;
55672;SDS011;41554;45.366;20.400;2023-07-20T04:38:47;7.50;;;5.05;;
55672;SDS011;41554;45.366;20.400;2023-07-20T04:41:13;6.73;;;4.83;;
55672;SDS011;41554;45.366;20.400;2023-07-20T04:43:42;7.65;;;5.03;;
55672;SDS011;41554;45.366;20.400;2023-07-20T04:46:09;12.35;;;4.88;;
55672;SDS011;41554;45.366;20.400;2023-07-20T04:48:35;11.85;;;5.72;;
55672;SDS011;41554;45.366;20.400;2023-07-20T04:51:02;7.13;;;4.97;;
55672;SDS011;41554;45.366;20.400;2023-07-20T04:53:28;8.25;;;4.75;;
55672;SDS011;41554;45.366;20.400;2023-07-20T04:55:54;10.82;;;5.70;;
55672;SDS011;41554;45.366;20.400;2023-07-20T04:58:21;12.70;;;5.28;;
55672;SDS011;41554;45.366;20.400;2023-07-20T05:00:50;9.65;;;5.15;;
55672;SDS011;41554;45.366;20.400;2023-07-20T05:03:16;13.32;;;5.10;;
55672;SDS011;41554;45.366;20.400;2023-07-20T05:05:42;7.07;;;4.97;;
55672;SDS011;41554;45.366;20.400;2023-07-20T05:08:08;14.45;;;5.22;;
55672;SDS011;41554;45.366;20.400;2023-07-20T05:10:34;6.22;;;4.75;;
55672;SDS011;41554;45.366;20.400;2023-07-20T05:13:00;11.52;;;5.43;;
55672;SDS011;41554;45.366;20.400;2023-07-20T05:15:26;6.25;;;4.68;;
55672;SDS011;41554;45.366;20.400;2023-07-20T05:17:52;7.63;;;5.45;;
55672;SDS011;41554;45.366;20.400;2023-07-20T05:20:19;9.10;;;5.75;;
55672;SDS011;41554;45.366;20.400;2023-07-20T05:22:45;8.50;;;5.85;;
55672;SDS011;41554;45.366;20.400;2023-07-20T05:25:11;9.30;;;5.78;;
55672;SDS011;41554;45.366;20.400;2023-07-20T05:27:38;10.77;;;7.28;;
55672;SDS011;41554;45.366;20.400;2023-07-20T05:30:04;12.60;;;6.57;;
55672;SDS011;41554;45.366;20.400;2023-07-20T05:32:31;6.70;;;4.57;;
55672;SDS011;41554;45.366;20.400;2023-07-20T05:34:57;10.32;;;5.45;;
55672;SDS011;41554;45.366;20.400;2023-07-20T05:37:23;12.02;;;5.10;;
55672;SDS011;41554;45.366;20.400;2023-07-20T05:39:49;16.40;;;5.35;;
55672;SDS011;41554;45.366;20.400;2023-07-20T05:42:16;11.30;;;7.43;;
55672;SDS011;41554;45.366;20.400;2023-07-20T05:44:42;36.53;;;26.88;;
55672;SDS011;41554;45.366;20.400;2023-07-20T05:47:08;30.15;;;21.88;;
55672;SDS011;41554;45.366;20.400;2023-07-20T05:49:34;26.05;;;19.75;;
55672;SDS011;41554;45.366;20.400;2023-07-20T05:52:00;22.98;;;13.27;;
55672;SDS011;41554;45.366;20.400;2023-07-20T05:54:27;14.73;;;10.75;;
55672;SDS011;41554;45.366;20.400;2023-07-20T05:56:53;11.23;;;8.68;;
55672;SDS011;41554;45.366;20.400;2023-07-20T05:59:19;13.00;;;8.27;;
55672;SDS011;41554;45.366;20.400;2023-07-20T06:01:46;10.80;;;6.30;;
55672;SDS011;41554;45.366;20.400;2023-07-20T06:04:15;7.03;;;5.83;;
55672;SDS011;41554;45.366;20.400;2023-07-20T06:06:41;7.97;;;4.97;;
55672;SDS011;41554;45.366;20.400;2023-07-20T06:09:07;8.07;;;4.82;;
55672;SDS011;41554;45.366;20.400;2023-07-20T06:11:37;9.55;;;5.35;;
55672;SDS011;41554;45.366;20.400;2023-07-20T06:14:03;14.23;;;5.78;;
55672;SDS011;41554;45.366;20.400;2023-07-20T06:16:29;9.20;;;4.63;;
55672;SDS011;41554;45.366;20.400;2023-07-20T06:18:55;12.38;;;6.63;;
55672;SDS011;41554;45.366;20.400;2023-07-20T06:21:21;7.72;;;5.13;;
55672;SDS011;41554;45.366;20.400;2023-07-20T06:23:47;15.88;;;4.78;;
55672;SDS011;41554;45.366;20.400;2023-07-20T06:26:13;14.65;;;6.13;;
55672;SDS011;41554;45.366;20.400;2023-07-20T06:28:40;6.40;;;4.70;;
55672;SDS011;41554;45.366;20.400;2023-07-20T06:31:06;6.80;;;5.32;;
55672;SDS011;41554;45.366;20.400;2023-07-20T06:33:32;8.90;;;5.30;;
55672;SDS011;41554;45.366;20.400;2023-07-20T06:35:59;10.77;;;5.05;;
55672;SDS011;41554;45.366;20.400;2023-07-20T06:38:25;9.35;;;6.30;;
55672;SDS011;41554;45.366;20.400;2023-07-20T06:40:52;6.72;;;4.45;;
55672;SDS011;41554;45.366;20.400;2023-07-20T06:43:18;9.07;;;6.00;;
55672;SDS011;41554;45.366;20.400;2023-07-20T06:45:44;8.40;;;4.50;;
55672;SDS011;41554;45.366;20.400;2023-07-20T06:48:10;11.27;;;4.97;;
55672;SDS011;41554;45.366;20.400;2023-07-20T06:50:36;9.75;;;4.82;;
55672;SDS011;41554;45.366;20.400;2023-07-20T06:53:02;8.48;;;4.95;;
55672;SDS011;41554;45.366;20.400;2023-07-20T06:55:29;6.00;;;4.95;;
55672;SDS011;41554;45.366;20.400;2023-07-20T06:57:55;9.30;;;5.03;;
55672;SDS011;41554;45.366;20.400;2023-07-20T07:00:21;10.70;;;4.90;;
55672;SDS011;41554;45.366;20.400;2023-07-20T07:02:47;8.75;;;6.10;;
55672;SDS011;41554;45.366;20.400;2023-07-20T07:05:13;7.88;;;5.10;;
55672;SDS011;41554;45.366;20.400;2023-07-20T07:07:40;10.15;;;4.82;;
55672;SDS011;41554;45.366;20.400;2023-07-20T07:10:07;9.90;;;5.63;;
55672;SDS011;41554;45.366;20.400;2023-07-20T07:12:33;18.13;;;6.97;;
55672;SDS011;41554;45.366;20.400;2023-07-20T07:15:00;9.98;;;5.20;;
55672;SDS011;41554;45.366;20.400;2023-07-20T07:17:26;15.80;;;6.90;;
55672;SDS011;41554;45.366;20.400;2023-07-20T07:19:52;9.80;;;5.55;;
55672;SDS011;41554;45.366;20.400;2023-07-20T07:22:20;12.38;;;5.88;;
55672;SDS011;41554;45.366;20.400;2023-07-20T07:24:49;7.10;;;5.22;;
55672;SDS011;41554;45.366;20.400;2023-07-20T07:27:15;12.23;;;5.78;;
55672;SDS011;41554;45.366;20.400;2023-07-20T07:29:41;8.18;;;5.85;;
55672;SDS011;41554;45.366;20.400;2023-07-20T07:32:10;6.80;;;4.78;;
55672;SDS011;41554;45.366;20.400;2023-07-20T07:34:37;15.38;;;5.47;;
55672;SDS011;41554;45.366;20.400;2023-07-20T07:37:03;7.05;;;4.85;;
55672;SDS011;41554;45.366;20.400;2023-07-20T07:39:30;16.83;;;7.18;;
55672;SDS011;41554;45.366;20.400;2023-07-20T07:41:56;10.98;;;6.03;;
55672;SDS011;41554;45.366;20.400;2023-07-20T07:44:22;8.93;;;5.43;;
55672;SDS011;41554;45.366;20.400;2023-07-20T07:46:49;7.78;;;5.55;;
55672;SDS011;41554;45.366;20.400;2023-07-20T07:49:15;7.45;;;4.40;;
55672;SDS011;41554;45.366;20.400;2023-07-20T07:51:41;9.60;;;5.45;;
55672;SDS011;41554;45.366;20.400;2023-07-20T07:54:07;6.47;;;5.20;;
55672;SDS011;41554;45.366;20.400;2023-07-20T07:56:33;7.22;;;4.80;;
55672;SDS011;41554;45.366;20.400;2023-07-20T07:58:59;13.00;;;7.20;;
55672;SDS011;41554;45.366;20.400;2023-07-20T08:01:25;16.63;;;6.57;;
55672;SDS011;41554;45.366;20.400;2023-07-20T08:03:51;11.18;;;5.65;;
55672;SDS011;41554;45.366;20.400;2023-07-20T08:06:17;15.10;;;7.10;;
55672;SDS011;41554;45.366;20.400;2023-07-20T08:08:43;13.90;;;6.43;;
55672;SDS011;41554;45.366;20.400;2023-07-20T08:11:09;8.90;;;5.43;;
55672;SDS011;41554;45.366;20.400;2023-07-20T08:13:36;8.70;;;4.72;;
55672;SDS011;41554;45.366;20.400;2023-07-20T08:16:02;13.80;;;6.60;;
55672;SDS011;41554;45.366;20.400;2023-07-20T08:18:28;10.10;;;5.18;;
55672;SDS011;41554;45.366;20.400;2023-07-20T08:20:54;7.65;;;4.93;;
55672;SDS011;41554;45.366;20.400;2023-07-20T08:23:20;9.18;;;5.75;;
55672;SDS011;41554;45.366;20.400;2023-07-20T08:25:46;10.50;;;5.82;;
55672;SDS011;41554;45.366;20.400;2023-07-20T08:28:15;9.05;;;5.80;;
55672;SDS011;41554;45.366;20.400;2023-07-20T08:30:48;8.00;;;5.60;;
55672;SDS011;41554;45.366;20.400;2023-07-20T08:33:15;12.55;;;8.13;;
55672;SDS011;41554;45.366;20.400;2023-07-20T08:35:41;11.30;;;6.53;;
55672;SDS011;41554;45.366;20.400;2023-07-20T08:38:08;9.40;;;6.82;;
55672;SDS011;41554;45.366;20.400;2023-07-20T08:40:38;9.13;;;6.97;;
55672;SDS011;41554;45.366;20.400;2023-07-20T08:43:05;11.50;;;4.65;;
55672;SDS011;41554;45.366;20.400;2023-07-20T08:45:32;12.07;;;6.85;;
55672;SDS011;41554;45.366;20.400;2023-07-20T08:47:58;9.75;;;5.95;;
55672;SDS011;41554;45.366;20.400;2023-07-20T08:50:27;10.88;;;6.68;;
55672;SDS011;41554;45.366;20.400;2023-07-20T08:52:54;9.95;;;6.82;;
55672;SDS011;41554;45.366;20.400;2023-07-20T08:55:22;6.75;;;4.90;;
55672;SDS011;41554;45.366;20.400;2023-07-20T08:57:55;7.15;;;5.47;;
55672;SDS011;41554;45.366;20.400;2023-07-20T09:00:22;12.98;;;6.50;;
55672;SDS011;41554;45.366;20.400;2023-07-20T09:02:49;6.82;;;5.00;;
55672;SDS011;41554;45.366;20.400;2023-07-20T09:05:19;8.52;;;5.30;;
55672;SDS011;41554;45.366;20.400;2023-07-20T09:07:45;7.00;;;5.15;;
55672;SDS011;41554;45.366;20.400;2023-07-20T09:10:11;8.85;;;5.65;;
55672;SDS011;41554;45.366;20.400;2023-07-20T09:12:38;8.70;;;6.00;;
55672;SDS011;41554;45.366;20.400;2023-07-20T09:15:05;8.52;;;5.30;;
55672;SDS011;41554;45.366;20.400;2023-07-20T09:17:31;12.63;;;6.10;;
55672;SDS011;41554;45.366;20.400;2023-07-20T09:19:57;8.32;;;5.40;;
55672;SDS011;41554;45.366;20.400;2023-07-20T09:22:30;11.43;;;7.00;;
55672;SDS011;41554;45.366;20.400;2023-07-20T09:24:56;11.15;;;5.60;;
55672;SDS011;41554;45.366;20.400;2023-07-20T09:27:22;15.35;;;6.35;;
55672;SDS011;41554;45.366;20.400;2023-07-20T09:29:49;14.98;;;5.88;;
55672;SDS011;41554;45.366;20.400;2023-07-20T09:32:18;8.55;;;6.20;;
55672;SDS011;41554;45.366;20.400;2023-07-20T09:34:47;7.05;;;5.10;;
55672;SDS011;41554;45.366;20.400;2023-07-20T09:37:13;9.55;;;6.22;;
55672;SDS011;41554;45.366;20.400;2023-07-20T09:39:45;12.82;;;6.65;;
55672;SDS011;41554;45.366;20.400;2023-07-20T09:42:12;9.48;;;5.10;;
55672;SDS011;41554;45.366;20.400;2023-07-20T09:44:43;7.65;;;4.57;;
55672;SDS011;41554;45.366;20.400;2023-07-20T09:47:09;8.93;;;5.93;;
55672;SDS011;41554;45.366;20.400;2023-07-20T09:49:39;7.03;;;5.18;;
55672;SDS011;41554;45.366;20.400;2023-07-20T09:52:06;13.82;;;5.10;;
55672;SDS011;41554;45.366;20.400;2023-07-20T09:54:32;9.15;;;4.63;;
55672;SDS011;41554;45.366;20.400;2023-07-20T09:56:59;7.80;;;5.00;;
55672;SDS011;41554;45.366;20.400;2023-07-20T09:59:27;6.07;;;4.53;;
55672;SDS011;41554;45.366;20.400;2023-07-20T10:01:53;7.20;;;3.55;;
55672;SDS011;41554;45.366;20.400;2023-07-20T10:04:24;5.65;;;3.90;;
55672;SDS011;41554;45.366;20.400;2023-07-20T10:06:51;7.20;;;4.07;;
55672;SDS011;41554;45.366;20.400;2023-07-20T10:09:17;6.07;;;3.88;;
55672;SDS011;41554;45.366;20.400;2023-07-20T10:11:45;9.23;;;5.22;;
55672;SDS011;41554;45.366;20.400;2023-07-20T10:14:14;6.57;;;4.78;;
55672;SDS011;41554;45.366;20.400;2023-07-20T10:16:46;10.23;;;5.15;;
55672;SDS011;41554;45.366;20.400;2023-07-20T10:19:41;6.55;;;4.35;;
55672;SDS011;41554;45.366;20.400;2023-07-20T10:22:07;11.63;;;6.35;;
55672;SDS011;41554;45.366;20.400;2023-07-20T10:24:36;15.85;;;5.40;;
55672;SDS011;41554;45.366;20.400;2023-07-20T10:27:02;12.32;;;5.53;;
55672;SDS011;41554;45.366;20.400;2023-07-20T10:29:29;8.30;;;6.45;;
55672;SDS011;41554;45.366;20.400;2023-07-20T10:31:55;8.35;;;5.82;;
55672;SDS011;41554;45.366;20.400;2023-07-20T10:34:22;6.20;;;4.57;;
55672;SDS011;41554;45.366;20.400;2023-07-20T10:36:48;8.35;;;5.10;;
55672;SDS011;41554;45.366;20.400;2023-07-20T10:39:23;13.32;;;5.65;;
55672;SDS011;41554;45.366;20.400;2023-07-20T10:41:50;12.32;;;6.22;;
55672;SDS011;41554;45.366;20.400;2023-07-20T10:44:25;8.75;;;4.57;;
55672;SDS011;41554;45.366;20.400;2023-07-20T10:46:51;7.68;;;4.55;;
55672;SDS011;41554;45.366;20.400;2023-07-20T10:49:24;6.63;;;4.53;;
55672;SDS011;41554;45.366;20.400;2023-07-20T10:52:13;5.05;;;4.53;;
55672;SDS011;41554;45.366;20.400;2023-07-20T10:54:46;7.60;;;5.10;;
55672;SDS011;41554;45.366;20.400;2023-07-20T11:00:09;8.38;;;4.85;;
55672;SDS011;41554;45.366;20.400;2023-07-20T11:02:46;11.35;;;5.07;;
55672;SDS011;41554;45.366;20.400;2023-07-20T11:07:57;9.73;;;5.38;;
55672;SDS011;41554;45.366;20.400;2023-07-20T11:10:23;6.63;;;4.63;;
55672;SDS011;41554;45.366;20.400;2023-07-20T11:13:34;8.98;;;5.03;;
55672;SDS011;41554;45.366;20.400;2023-07-20T11:15:45;7.13;;;5.70;;
55672;SDS011;41554;45.366;20.400;2023-07-20T11:18:11;6.63;;;4.63;;
55672;SDS011;41554;45.366;20.400;2023-07-20T11:20:38;8.85;;;4.85;;
55672;SDS011;41554;45.366;20.400;2023-07-20T11:23:04;28.33;;;7.22;;
55672;SDS011;41554;45.366;20.400;2023-07-20T11:25:39;13.20;;;5.28;;
55672;SDS011;41554;45.366;20.400;2023-07-20T11:28:06;7.07;;;4.80;;
55672;SDS011;41554;45.366;20.400;2023-07-20T11:30:33;6.95;;;4.60;;
55672;SDS011;41554;45.366;20.400;2023-07-20T11:33:00;10.85;;;4.43;;
55672;SDS011;41554;45.366;20.400;2023-07-20T11:35:26;6.90;;;4.13;;
55672;SDS011;41554;45.366;20.400;2023-07-20T11:37:52;7.57;;;4.63;;
55672;SDS011;41554;45.366;20.400;2023-07-20T11:40:18;7.43;;;4.40;;
55672;SDS011;41554;45.366;20.400;2023-07-20T11:42:44;8.88;;;5.75;;
55672;SDS011;41554;45.366;20.400;2023-07-20T11:45:11;13.15;;;4.93;;
55672;SDS011;41554;45.366;20.400;2023-07-20T11:47:40;7.72;;;4.82;;
55672;SDS011;41554;45.366;20.400;2023-07-20T11:50:09;5.85;;;4.65;;
55672;SDS011;41554;45.366;20.400;2023-07-20T11:52:36;10.85;;;6.63;;
55672;SDS011;41554;45.366;20.400;2023-07-20T11:55:02;5.85;;;5.00;;
55672;SDS011;41554;45.366;20.400;2023-07-20T11:57:29;10.00;;;4.55;;
55672;SDS011;41554;45.366;20.400;2023-07-20T11:59:55;14.05;;;5.30;;
55672;SDS011;41554;45.366;20.400;2023-07-20T12:02:22;10.38;;;5.93;;
55672;SDS011;41554;45.366;20.400;2023-07-20T12:07:21;5.85;;;4.30;;
55672;SDS011;41554;45.366;20.400;2023-07-20T12:12:13;7.35;;;5.60;;
55672;SDS011;41554;45.366;20.400;2023-07-20T12:14:39;7.45;;;4.82;;
55672;SDS011;41554;45.366;20.400;2023-07-20T12:17:07;9.55;;;6.55;;
55672;SDS011;41554;45.366;20.400;2023-07-20T12:19:37;4.45;;;3.83;;
55672;SDS011;41554;45.366;20.400;2023-07-20T12:22:04;8.30;;;5.20;;
55672;SDS011;41554;45.366;20.400;2023-07-20T12:24:30;14.63;;;4.55;;
55672;SDS011;41554;45.366;20.400;2023-07-20T12:26:56;7.97;;;6.25;;
55672;SDS011;41554;45.366;20.400;2023-07-20T12:29:23;5.43;;;4.40;;
55672;SDS011;41554;45.366;20.400;2023-07-20T12:31:49;15.38;;;6.85;;
55672;SDS011;41554;45.366;20.400;2023-07-20T12:34:16;7.28;;;5.43;;
55672;SDS011;41554;45.366;20.400;2023-07-20T12:36:42;8.05;;;5.22;;
55672;SDS011;41554;45.366;20.400;2023-07-20T12:39:08;10.23;;;4.78;;
55672;SDS011;41554;45.366;20.400;2023-07-20T12:41:34;9.77;;;5.38;;
55672;SDS011;41554;45.366;20.400;2023-07-20T12:44:00;5.85;;;4.22;;
55672;SDS011;41554;45.366;20.400;2023-07-20T12:46:26;12.50;;;5.93;;
55672;SDS011;41554;45.366;20.400;2023-07-20T12:48:54;5.95;;;4.78;;
55672;SDS011;41554;45.366;20.400;2023-07-20T12:51:20;7.70;;;5.32;;
55672;SDS011;41554;45.366;20.400;2023-07-20T12:53:46;6.45;;;5.40;;
55672;SDS011;41554;45.366;20.400;2023-07-20T12:56:12;13.82;;;5.18;;
55672;SDS011;41554;45.366;20.400;2023-07-20T12:58:38;9.38;;;6.22;;
55672;SDS011;41554;45.366;20.400;2023-07-20T13:01:04;7.03;;;4.85;;
55672;SDS011;41554;45.366;20.400;2023-07-20T13:03:30;7.22;;;4.75;;
55672;SDS011;41554;45.366;20.400;2023-07-20T13:05:56;11.40;;;5.13;;
55672;SDS011;41554;45.366;20.400;2023-07-20T13:08:23;7.60;;;5.18;;
55672;SDS011;41554;45.366;20.400;2023-07-20T13:10:50;14.07;;;5.05;;
55672;SDS011;41554;45.366;20.400;2023-07-20T13:13:16;8.32;;;5.00;;
55672;SDS011;41554;45.366;20.400;2023-07-20T13:15:43;8.70;;;5.57;;
55672;SDS011;41554;45.366;20.400;2023-07-20T13:18:11;15.43;;;6.28;;
55672;SDS011;41554;45.366;20.400;2023-07-20T13:20:37;7.50;;;4.97;;
55672;SDS011;41554;45.366;20.400;2023-07-20T13:23:04;17.35;;;6.40;;
55672;SDS011;41554;45.366;20.400;2023-07-20T13:25:30;5.78;;;4.63;;
55672;SDS011;41554;45.366;20.400;2023-07-20T13:27:56;5.88;;;4.45;;
55672;SDS011;41554;45.366;20.400;2023-07-20T13:30:22;7.13;;;4.30;;
55672;SDS011;41554;45.366;20.400;2023-07-20T13:32:48;8.57;;;5.05;;
55672;SDS011;41554;45.366;20.400;2023-07-20T13:35:14;8.77;;;5.20;;
55672;SDS011;41554;45.366;20.400;2023-07-20T13:37:41;11.57;;;5.43;;
55672;SDS011;41554;45.366;20.400;2023-07-20T13:40:07;6.40;;;4.28;;
55672;SDS011;41554;45.366;20.400;2023-07-20T13:42:37;6.60;;;4.70;;
55672;SDS011;41554;45.366;20.400;2023-07-20T13:45:03;8.88;;;4.65;;
55672;SDS011;41554;45.366;20.400;2023-07-20T13:47:29;5.85;;;4.40;;
55672;SDS011;41554;45.366;20.400;2023-07-20T13:49:55;7.13;;;4.13;;
55672;SDS011;41554;45.366;20.400;2023-07-20T13:52:21;14.65;;;4.63;;
55672;SDS011;41554;45.366;20.400;2023-07-20T13:54:47;9.10;;;4.55;;
55672;SDS011;41554;45.366;20.400;2023-07-20T13:57:14;10.65;;;4.35;;
55672;SDS011;41554;45.366;20.400;2023-07-20T13:59:40;7.32;;;4.40;;
55672;SDS011;41554;45.366;20.400;2023-07-20T14:02:06;8.98;;;4.35;;
55672;SDS011;41554;45.366;20.400;2023-07-20T14:04:32;7.55;;;5.85;;
55672;SDS011;41554;45.366;20.400;2023-07-20T14:06:58;9.27;;;7.38;;
55672;SDS011;41554;45.366;20.400;2023-07-20T14:09:24;8.07;;;4.53;;
55672;SDS011;41554;45.366;20.400;2023-07-20T14:11:50;11.40;;;5.22;;
55672;SDS011;41554;45.366;20.400;2023-07-20T14:14:16;13.07;;;5.60;;
55672;SDS011;41554;45.366;20.400;2023-07-20T14:16:42;13.73;;;5.57;;
55672;SDS011;41554;45.366;20.400;2023-07-20T14:19:09;10.40;;;5.72;;
55672;SDS011;41554;45.366;20.400;2023-07-20T14:21:35;15.90;;;5.95;;
55672;SDS011;41554;45.366;20.400;2023-07-20T14:24:01;5.15;;;3.80;;
55672;SDS011;41554;45.366;20.400;2023-07-20T14:26:27;7.18;;;5.20;;
55672;SDS011;41554;45.366;20.400;2023-07-20T14:28:53;7.30;;;4.75;;
55672;SDS011;41554;45.366;20.400;2023-07-20T14:31:19;5.78;;;4.15;;
55672;SDS011;41554;45.366;20.400;2023-07-20T14:33:45;7.75;;;4.40;;
55672;SDS011;41554;45.366;20.400;2023-07-20T14:36:11;8.13;;;5.35;;
55672;SDS011;41554;45.366;20.400;2023-07-20T14:38:37;15.10;;;3.58;;
55672;SDS011;41554;45.366;20.400;2023-07-20T14:41:05;8.48;;;4.35;;
55672;SDS011;41554;45.366;20.400;2023-07-20T14:43:31;8.93;;;4.10;;
55672;SDS011;41554;45.366;20.400;2023-07-20T14:45:57;7.10;;;3.47;;
55672;SDS011;41554;45.366;20.400;2023-07-20T14:48:23;8.75;;;3.88;;